sensor_id;sensor_type;location;lat;lon;timestamp;pressure;altitude;pressure_sealevel;temperature;humidity
74868;BME280;63419;42.262;12.210;2022-12-18T00:00:29;98101.88;;;15.31;100.00
74868;BME280;63419;42.262;12.210;2022-12-18T00:03:01;98103.44;;;15.09;100.00
74868;BME280;63419;42.262;12.210;2022-12-18T00:05:36;98114.91;;;14.82;100.00
74868;BME280;63419;42.262;12.210;2022-12-18T00:08:06;98116.38;;;15.22;100.00
74868;BME280;63419;42.262;12.210;2022-12-18T00:10:38;98120.06;;;15.31;100.00
74868;BME280;63419;42.262;12.210;2022-12-18T00:13:24;98116.25;;;15.23;100.00
74868;BME280;63419;42.262;12.210;2022-12-18T00:15:54;98119.44;;;15.51;100.00
74868;BME280;63419;42.262;12.210;2022-12-18T00:18:22;98122.38;;;15.47;100.00
74868;BME280;63419;42.262;12.210;2022-12-18T00:20:49;98128.06;;;15.52;100.00
74868;BME280;63419;42.262;12.210;2022-12-18T00:23:17;98134.75;;;15.08;100.00
74868;BME280;63419;42.262;12.210;2022-12-18T00:25:46;98131.59;;;14.67;100.00
74868;BME280;63419;42.262;12.210;2022-12-18T00:28:14;98135.88;;;14.92;100.00
74868;BME280;63419;42.262;12.210;2022-12-18T00:30:49;98140.38;;;14.77;100.00
74868;BME280;63419;42.262;12.210;2022-12-18T00:33:21;98142.78;;;15.40;100.00
74868;BME280;63419;42.262;12.210;2022-12-18T00:38:37;98140.72;;;15.56;100.00
74868;BME280;63419;42.262;12.210;2022-12-18T00:41:10;98145.56;;;15.50;100.00
74868;BME280;63419;42.262;12.210;2022-12-18T00:43:42;98143.81;;;15.26;100.00
74868;BME280;63419;42.262;12.210;2022-12-18T00:46:12;98150.25;;;15.45;100.00
74868;BME280;63419;42.262;12.210;2022-12-18T00:48:39;98149.03;;;15.61;100.00
74868;BME280;63419;42.262;12.210;2022-12-18T00:51:06;98155.81;;;15.75;100.00
74868;BME280;63419;42.262;12.210;2022-12-18T00:53:36;98154.13;;;15.28;100.00
74868;BME280;63419;42.262;12.210;2022-12-18T00:56:11;98150.94;;;15.11;100.00
74868;BME280;63419;42.262;12.210;2022-12-18T00:58:40;98158.38;;;15.40;100.00
74868;BME280;63419;42.262;12.210;2022-12-18T01:01:09;98164.75;;;15.36;100.00
74868;BME280;63419;42.262;12.210;2022-12-18T01:03:44;98175.47;;;15.55;100.00
74868;BME280;63419;42.262;12.210;2022-12-18T01:06:16;98177.03;;;16.05;100.00
74868;BME280;63419;42.262;12.210;2022-12-18T01:08:46;98175.84;;;16.20;100.00
74868;BME280;63419;42.262;12.210;2022-12-18T01:11:22;98177.53;;;16.21;100.00
74868;BME280;63419;42.262;12.210;2022-12-18T01:13:53;98184.41;;;16.22;100.00
74868;BME280;63419;42.262;12.210;2022-12-18T01:16:27;98188.16;;;16.18;100.00
74868;BME280;63419;42.262;12.210;2022-12-18T01:18:55;98196.59;;;16.33;100.00
74868;BME280;63419;42.262;12.210;2022-12-18T01:21:22;98197.59;;;15.85;100.00
74868;BME280;63419;42.262;12.210;2022-12-18T01:23:57;98198.84;;;16.15;100.00
74868;BME280;63419;42.262;12.210;2022-12-18T01:26:26;98201.88;;;16.09;100.00
74868;BME280;63419;42.262;12.210;2022-12-18T01:28:57;98203.56;;;16.66;100.00
74868;BME280;63419;42.262;12.210;2022-12-18T01:31:30;98206.06;;;16.23;100.00
74868;BME280;63419;42.262;12.210;2022-12-18T01:34:02;98211.47;;;15.61;100.00
74868;BME280;63419;42.262;12.210;2022-12-18T01:36:34;98210.13;;;15.91;100.00
74868;BME280;63419;42.262;12.210;2022-12-18T01:39:09;98219.13;;;15.28;100.00
74868;BME280;63419;42.262;12.210;2022-12-18T01:41:38;98218.75;;;15.32;100.00
74868;BME280;63419;42.262;12.210;2022-12-18T01:47:50;98229.81;;;16.18;100.00
74868;BME280;63419;42.262;12.210;2022-12-18T01:53:17;98234.25;;;15.58;100.00
74868;BME280;63419;42.262;12.210;2022-12-18T01:55:55;98233.81;;;15.88;100.00
74868;BME280;63419;42.262;12.210;2022-12-18T01:58:48;98226.66;;;15.79;100.00
74868;BME280;63419;42.262;12.210;2022-12-18T02:01:22;98226.72;;;15.90;100.00
74868;BME280;63419;42.262;12.210;2022-12-18T02:03:56;98239.13;;;15.74;100.00
74868;BME280;63419;42.262;12.210;2022-12-18T02:06:41;98251.97;;;15.29;100.00
74868;BME280;63419;42.262;12.210;2022-12-18T02:09:49;98240.38;;;15.33;100.00
74868;BME280;63419;42.262;12.210;2022-12-18T02:18:56;98241.00;;;15.12;100.00
74868;BME280;63419;42.262;12.210;2022-12-18T02:27:44;98255.41;;;14.79;100.00
74868;BME280;63419;42.262;12.210;2022-12-18T02:30:18;98251.69;;;14.83;100.00
74868;BME280;63419;42.262;12.210;2022-12-18T02:32:54;98257.88;;;15.07;100.00
74868;BME280;63419;42.262;12.210;2022-12-18T02:35:33;98256.66;;;14.74;100.00
74868;BME280;63419;42.262;12.210;2022-12-18T02:38:08;98258.84;;;15.78;100.00
74868;BME280;63419;42.262;12.210;2022-12-18T02:40:40;98267.59;;;13.75;100.00
74868;BME280;63419;42.262;12.210;2022-12-18T02:43:13;98273.28;;;13.40;100.00
74868;BME280;63419;42.262;12.210;2022-12-18T02:45:56;98280.34;;;14.43;100.00
74868;BME280;63419;42.262;12.210;2022-12-18T02:48:34;98285.75;;;13.75;100.00
74868;BME280;63419;42.262;12.210;2022-12-18T02:51:29;98285.00;;;15.64;100.00
74868;BME280;63419;42.262;12.210;2022-12-18T02:54:17;98273.38;;;14.82;100.00
74868;BME280;63419;42.262;12.210;2022-12-18T02:57:05;98280.44;;;14.93;100.00
74868;BME280;63419;42.262;12.210;2022-12-18T02:59:58;98278.91;;;14.91;100.00
74868;BME280;63419;42.262;12.210;2022-12-18T03:02:55;98280.78;;;14.24;100.00
74868;BME280;63419;42.262;12.210;2022-12-18T03:05:41;98283.56;;;14.34;100.00
74868;BME280;63419;42.262;12.210;2022-12-18T03:08:24;98293.84;;;14.48;100.00
74868;BME280;63419;42.262;12.210;2022-12-18T03:11:06;98297.56;;;15.09;100.00
74868;BME280;63419;42.262;12.210;2022-12-18T03:13:56;98295.59;;;15.12;100.00
74868;BME280;63419;42.262;12.210;2022-12-18T03:16:29;98291.91;;;14.65;100.00
74868;BME280;63419;42.262;12.210;2022-12-18T03:19:15;98278.59;;;14.82;100.00
74868;BME280;63419;42.262;12.210;2022-12-18T03:21:51;98284.78;;;15.42;100.00
74868;BME280;63419;42.262;12.210;2022-12-18T03:24:22;98285.28;;;15.11;100.00
74868;BME280;63419;42.262;12.210;2022-12-18T03:27:02;98279.19;;;15.36;100.00
74868;BME280;63419;42.262;12.210;2022-12-18T03:29:47;98276.19;;;15.29;100.00
74868;BME280;63419;42.262;12.210;2022-12-18T03:32:31;98276.13;;;15.18;100.00
74868;BME280;63419;42.262;12.210;2022-12-18T03:35:08;98279.56;;;15.42;100.00
74868;BME280;63419;42.262;12.210;2022-12-18T03:37:48;98277.53;;;15.35;100.00
74868;BME280;63419;42.262;12.210;2022-12-18T03:40:24;98285.59;;;15.06;100.00
74868;BME280;63419;42.262;12.210;2022-12-18T03:47:13;98277.75;;;14.95;100.00
74868;BME280;63419;42.262;12.210;2022-12-18T03:53:06;98277.44;;;14.74;100.00
74868;BME280;63419;42.262;12.210;2022-12-18T03:55:40;98289.19;;;14.28;100.00
74868;BME280;63419;42.262;12.210;2022-12-18T03:58:16;98309.03;;;13.20;100.00
74868;BME280;63419;42.262;12.210;2022-12-18T04:00:48;98299.75;;;14.25;100.00
74868;BME280;63419;42.262;12.210;2022-12-18T04:03:19;98296.56;;;14.85;100.00
74868;BME280;63419;42.262;12.210;2022-12-18T04:05:55;98293.03;;;14.87;100.00
74868;BME280;63419;42.262;12.210;2022-12-18T04:08:25;98294.47;;;14.26;100.00
74868;BME280;63419;42.262;12.210;2022-12-18T04:10:53;98309.75;;;13.78;100.00
74868;BME280;63419;42.262;12.210;2022-12-18T04:13:41;98314.03;;;13.23;100.00
74868;BME280;63419;42.262;12.210;2022-12-18T04:16:09;98321.88;;;14.31;100.00
74868;BME280;63419;42.262;12.210;2022-12-18T04:18:57;98309.63;;;14.45;100.00
74868;BME280;63419;42.262;12.210;2022-12-18T04:21:28;98315.69;;;14.33;100.00
74868;BME280;63419;42.262;12.210;2022-12-18T04:23:56;98319.28;;;14.31;100.00
74868;BME280;63419;42.262;12.210;2022-12-18T04:26:24;98327.63;;;14.61;100.00
74868;BME280;63419;42.262;12.210;2022-12-18T04:29:04;98327.97;;;14.04;100.00
74868;BME280;63419;42.262;12.210;2022-12-18T04:31:33;98339.03;;;13.93;100.00
74868;BME280;63419;42.262;12.210;2022-12-18T04:34:10;98341.84;;;14.30;100.00
74868;BME280;63419;42.262;12.210;2022-12-18T04:36:40;98334.06;;;14.56;100.00
74868;BME280;63419;42.262;12.210;2022-12-18T04:39:13;98331.81;;;14.64;100.00
74868;BME280;63419;42.262;12.210;2022-12-18T04:41:43;98336.13;;;14.51;100.00
74868;BME280;63419;42.262;12.210;2022-12-18T04:44:21;98340.56;;;14.10;100.00
74868;BME280;63419;42.262;12.210;2022-12-18T04:46:52;98352.13;;;14.04;100.00
74868;BME280;63419;42.262;12.210;2022-12-18T04:49:25;98354.53;;;14.47;100.00
74868;BME280;63419;42.262;12.210;2022-12-18T04:51:58;98349.72;;;14.41;100.00
74868;BME280;63419;42.262;12.210;2022-12-18T04:54:35;98358.81;;;14.08;100.00
74868;BME280;63419;42.262;12.210;2022-12-18T04:57:09;98352.50;;;13.85;100.00
74868;BME280;63419;42.262;12.210;2022-12-18T04:59:36;98355.88;;;14.00;100.00
74868;BME280;63419;42.262;12.210;2022-12-18T05:02:06;98356.97;;;14.23;100.00
74868;BME280;63419;42.262;12.210;2022-12-18T05:04:35;98370.16;;;12.51;100.00
74868;BME280;63419;42.262;12.210;2022-12-18T05:07:10;98372.63;;;13.11;100.00
74868;BME280;63419;42.262;12.210;2022-12-18T05:09:39;98380.19;;;13.29;100.00
74868;BME280;63419;42.262;12.210;2022-12-18T05:12:07;98381.41;;;13.23;100.00
74868;BME280;63419;42.262;12.210;2022-12-18T05:14:37;98382.31;;;13.65;100.00
74868;BME280;63419;42.262;12.210;2022-12-18T05:17:06;98386.22;;;13.15;100.00
74868;BME280;63419;42.262;12.210;2022-12-18T05:22:17;98388.03;;;13.70;100.00
74868;BME280;63419;42.262;12.210;2022-12-18T05:24:44;98396.53;;;14.27;100.00
74868;BME280;63419;42.262;12.210;2022-12-18T05:27:11;98396.53;;;14.27;100.00
74868;BME280;63419;42.262;12.210;2022-12-18T05:29:46;98404.94;;;14.18;100.00
74868;BME280;63419;42.262;12.210;2022-12-18T05:32:13;98404.84;;;13.92;100.00
74868;BME280;63419;42.262;12.210;2022-12-18T05:34:44;98407.69;;;14.42;100.00
74868;BME280;63419;42.262;12.210;2022-12-18T05:37:17;98411.50;;;14.63;100.00
74868;BME280;63419;42.262;12.210;2022-12-18T05:39:46;98413.06;;;14.92;100.00
74868;BME280;63419;42.262;12.210;2022-12-18T05:42:16;98414.09;;;14.36;100.00
74868;BME280;63419;42.262;12.210;2022-12-18T05:44:44;98418.88;;;14.82;100.00
74868;BME280;63419;42.262;12.210;2022-12-18T05:47:12;98416.88;;;14.20;100.00
74868;BME280;63419;42.262;12.210;2022-12-18T05:49:39;98424.59;;;14.62;100.00
74868;BME280;63419;42.262;12.210;2022-12-18T05:52:13;98426.78;;;14.68;100.00
74868;BME280;63419;42.262;12.210;2022-12-18T05:54:42;98428.13;;;14.61;100.00
74868;BME280;63419;42.262;12.210;2022-12-18T05:57:18;98434.38;;;14.84;100.00
74868;BME280;63419;42.262;12.210;2022-12-18T05:59:52;98445.63;;;14.44;100.00
74868;BME280;63419;42.262;12.210;2022-12-18T06:02:32;98444.75;;;14.71;100.00
74868;BME280;63419;42.262;12.210;2022-12-18T06:05:05;98440.59;;;15.33;100.00
74868;BME280;63419;42.262;12.210;2022-12-18T06:07:34;98434.09;;;15.77;100.00
74868;BME280;63419;42.262;12.210;2022-12-18T06:10:02;98443.91;;;15.60;100.00
74868;BME280;63419;42.262;12.210;2022-12-18T06:12:33;98452.47;;;13.91;100.00
74868;BME280;63419;42.262;12.210;2022-12-18T06:15:10;98451.81;;;13.46;100.00
74868;BME280;63419;42.262;12.210;2022-12-18T06:17:39;98460.06;;;14.48;100.00
74868;BME280;63419;42.262;12.210;2022-12-18T06:20:06;98458.28;;;13.39;100.00
74868;BME280;63419;42.262;12.210;2022-12-18T06:22:37;98475.13;;;13.31;100.00
74868;BME280;63419;42.262;12.210;2022-12-18T06:25:06;98464.56;;;14.32;100.00
74868;BME280;63419;42.262;12.210;2022-12-18T06:27:34;98472.38;;;14.72;100.00
74868;BME280;63419;42.262;12.210;2022-12-18T06:30:12;98466.91;;;14.50;100.00
74868;BME280;63419;42.262;12.210;2022-12-18T06:32:48;98470.63;;;14.60;100.00
74868;BME280;63419;42.262;12.210;2022-12-18T06:35:24;98472.66;;;14.55;100.00
74868;BME280;63419;42.262;12.210;2022-12-18T06:37:58;98475.16;;;14.29;100.00
74868;BME280;63419;42.262;12.210;2022-12-18T06:40:33;98478.28;;;14.34;100.00
74868;BME280;63419;42.262;12.210;2022-12-18T06:43:00;98476.91;;;14.56;100.00
74868;BME280;63419;42.262;12.210;2022-12-18T06:45:31;98476.88;;;14.16;100.00
74868;BME280;63419;42.262;12.210;2022-12-18T06:48:00;98486.97;;;13.50;100.00
74868;BME280;63419;42.262;12.210;2022-12-18T06:50:27;98485.84;;;13.68;100.00
74868;BME280;63419;42.262;12.210;2022-12-18T06:52:58;98489.97;;;14.54;100.00
74868;BME280;63419;42.262;12.210;2022-12-18T06:55:27;98486.03;;;14.48;100.00
74868;BME280;63419;42.262;12.210;2022-12-18T06:58:02;98481.16;;;15.10;100.00
74868;BME280;63419;42.262;12.210;2022-12-18T07:00:29;98489.91;;;15.21;100.00
74868;BME280;63419;42.262;12.210;2022-12-18T07:03:00;98496.50;;;14.47;100.00
74868;BME280;63419;42.262;12.210;2022-12-18T07:05:28;98499.50;;;15.08;100.00
74868;BME280;63419;42.262;12.210;2022-12-18T07:08:07;98503.63;;;15.11;100.00
74868;BME280;63419;42.262;12.210;2022-12-18T07:10:45;98505.09;;;15.02;100.00
74868;BME280;63419;42.262;12.210;2022-12-18T07:13:28;98513.84;;;14.46;100.00
74868;BME280;63419;42.262;12.210;2022-12-18T07:15:55;98514.50;;;14.77;100.00
74868;BME280;63419;42.262;12.210;2022-12-18T07:18:22;98519.31;;;14.83;100.00
74868;BME280;63419;42.262;12.210;2022-12-18T07:20:49;98515.97;;;14.81;100.00
74868;BME280;63419;42.262;12.210;2022-12-18T07:23:19;98520.59;;;15.16;100.00
74868;BME280;63419;42.262;12.210;2022-12-18T07:25:46;98531.03;;;14.76;100.00
74868;BME280;63419;42.262;12.210;2022-12-18T07:28:15;98525.78;;;15.03;100.00
74868;BME280;63419;42.262;12.210;2022-12-18T07:30:50;98529.22;;;14.64;100.00
74868;BME280;63419;42.262;12.210;2022-12-18T07:33:22;98535.97;;;14.94;100.00
74868;BME280;63419;42.262;12.210;2022-12-18T07:35:51;98550.41;;;13.87;100.00
74868;BME280;63419;42.262;12.210;2022-12-18T07:38:21;98556.59;;;13.85;100.00
74868;BME280;63419;42.262;12.210;2022-12-18T07:40:51;98552.84;;;13.62;100.00
74868;BME280;63419;42.262;12.210;2022-12-18T07:43:19;98551.25;;;13.74;100.00
74868;BME280;63419;42.262;12.210;2022-12-18T07:45:49;98552.25;;;14.41;100.00
74868;BME280;63419;42.262;12.210;2022-12-18T07:48:18;98543.97;;;14.49;100.00
74868;BME280;63419;42.262;12.210;2022-12-18T07:50:49;98555.03;;;14.11;100.00
74868;BME280;63419;42.262;12.210;2022-12-18T07:53:16;98555.78;;;13.11;100.00
74868;BME280;63419;42.262;12.210;2022-12-18T07:55:43;98562.34;;;12.40;100.00
74868;BME280;63419;42.262;12.210;2022-12-18T07:58:42;98572.91;;;13.44;100.00
74868;BME280;63419;42.262;12.210;2022-12-18T08:01:16;98579.50;;;13.93;100.00
74868;BME280;63419;42.262;12.210;2022-12-18T08:03:49;98587.09;;;13.67;100.00
74868;BME280;63419;42.262;12.210;2022-12-18T08:06:28;98592.75;;;13.74;100.00
74868;BME280;63419;42.262;12.210;2022-12-18T08:08:59;98587.22;;;14.50;100.00
74868;BME280;63419;42.262;12.210;2022-12-18T08:11:28;98594.22;;;14.35;100.00
74868;BME280;63419;42.262;12.210;2022-12-18T08:14:02;98594.78;;;13.83;100.00
74868;BME280;63419;42.262;12.210;2022-12-18T08:16:46;98602.03;;;14.21;100.00
74868;BME280;63419;42.262;12.210;2022-12-18T08:19:14;98604.25;;;14.13;100.00
74868;BME280;63419;42.262;12.210;2022-12-18T08:21:50;98602.31;;;14.02;100.00
74868;BME280;63419;42.262;12.210;2022-12-18T08:24:24;98611.44;;;13.50;100.00
74868;BME280;63419;42.262;12.210;2022-12-18T08:26:54;98615.91;;;14.20;100.00
74868;BME280;63419;42.262;12.210;2022-12-18T08:29:49;98613.94;;;14.94;100.00
74868;BME280;63419;42.262;12.210;2022-12-18T08:32:30;98605.16;;;14.26;100.00
74868;BME280;63419;42.262;12.210;2022-12-18T08:35:07;98603.78;;;15.16;100.00
74868;BME280;63419;42.262;12.210;2022-12-18T08:38:01;98614.34;;;15.28;100.00
74868;BME280;63419;42.262;12.210;2022-12-18T08:40:31;98612.09;;;16.00;100.00
74868;BME280;63419;42.262;12.210;2022-12-18T08:43:01;98611.47;;;15.96;100.00
74868;BME280;63419;42.262;12.210;2022-12-18T08:45:51;98613.81;;;16.25;100.00
74868;BME280;63419;42.262;12.210;2022-12-18T08:48:22;98610.84;;;15.54;100.00
74868;BME280;63419;42.262;12.210;2022-12-18T08:50:58;98618.72;;;16.30;100.00
74868;BME280;63419;42.262;12.210;2022-12-18T08:53:29;98622.94;;;15.81;100.00
74868;BME280;63419;42.262;12.210;2022-12-18T08:56:04;98629.47;;;15.99;100.00
74868;BME280;63419;42.262;12.210;2022-12-18T08:58:41;98634.38;;;15.78;100.00
74868;BME280;63419;42.262;12.210;2022-12-18T09:01:16;98623.31;;;16.26;100.00
74868;BME280;63419;42.262;12.210;2022-12-18T09:03:50;98627.09;;;15.96;100.00
74868;BME280;63419;42.262;12.210;2022-12-18T09:06:27;98635.25;;;16.42;100.00
74868;BME280;63419;42.262;12.210;2022-12-18T09:09:00;98641.47;;;15.89;100.00
74868;BME280;63419;42.262;12.210;2022-12-18T09:11:31;98638.50;;;16.32;100.00
74868;BME280;63419;42.262;12.210;2022-12-18T09:14:04;98642.81;;;16.58;100.00
74868;BME280;63419;42.262;12.210;2022-12-18T09:16:32;98650.19;;;16.14;100.00
74868;BME280;63419;42.262;12.210;2022-12-18T09:19:08;98651.63;;;16.18;100.00
74868;BME280;63419;42.262;12.210;2022-12-18T09:21:47;98649.53;;;16.49;100.00
74868;BME280;63419;42.262;12.210;2022-12-18T09:24:27;98639.94;;;16.49;100.00
74868;BME280;63419;42.262;12.210;2022-12-18T09:26:57;98650.25;;;16.51;100.00
74868;BME280;63419;42.262;12.210;2022-12-18T09:29:25;98634.50;;;17.13;100.00
74868;BME280;63419;42.262;12.210;2022-12-18T09:31:58;98639.53;;;16.80;100.00
74868;BME280;63419;42.262;12.210;2022-12-18T09:37:38;98631.91;;;17.25;100.00
74868;BME280;63419;42.262;12.210;2022-12-18T09:40:06;98631.50;;;18.45;100.00
74868;BME280;63419;42.262;12.210;2022-12-18T09:42:51;98635.19;;;18.20;100.00
74868;BME280;63419;42.262;12.210;2022-12-18T09:45:23;98632.56;;;18.32;100.00
74868;BME280;63419;42.262;12.210;2022-12-18T09:48:16;98615.72;;;19.86;100.00
74868;BME280;63419;42.262;12.210;2022-12-18T09:50:57;98614.53;;;20.41;100.00
74868;BME280;63419;42.262;12.210;2022-12-18T09:53:32;98626.81;;;19.15;100.00
74868;BME280;63419;42.262;12.210;2022-12-18T09:56:16;98635.19;;;17.86;100.00
74868;BME280;63419;42.262;12.210;2022-12-18T09:58:59;98629.13;;;18.42;100.00
74868;BME280;63419;42.262;12.210;2022-12-18T10:01:32;98629.69;;;17.78;100.00
74868;BME280;63419;42.262;12.210;2022-12-18T10:04:10;98631.41;;;18.24;100.00
74868;BME280;63419;42.262;12.210;2022-12-18T10:06:49;98624.03;;;18.30;100.00
74868;BME280;63419;42.262;12.210;2022-12-18T10:10:06;98623.53;;;19.34;100.00
74868;BME280;63419;42.262;12.210;2022-12-18T10:21:57;98609.47;;;19.77;100.00
74868;BME280;63419;42.262;12.210;2022-12-18T10:27:25;98609.25;;;21.40;100.00
74868;BME280;63419;42.262;12.210;2022-12-18T10:29:54;98611.41;;;22.49;100.00
74868;BME280;63419;42.262;12.210;2022-12-18T10:32:52;98604.31;;;22.59;100.00
74868;BME280;63419;42.262;12.210;2022-12-18T10:35:27;98594.22;;;23.97;100.00
74868;BME280;63419;42.262;12.210;2022-12-18T10:40:31;98587.72;;;24.84;100.00
74868;BME280;63419;42.262;12.210;2022-12-18T10:43:36;98590.81;;;24.12;100.00
74868;BME280;63419;42.262;12.210;2022-12-18T10:46:17;98594.22;;;23.97;100.00
74868;BME280;63419;42.262;12.210;2022-12-18T10:52:05;98594.22;;;26.43;100.00
74868;BME280;63419;42.262;12.210;2022-12-18T10:54:39;98583.00;;;26.10;100.00
74868;BME280;63419;42.262;12.210;2022-12-18T11:04:28;98584.47;;;26.04;100.00
74868;BME280;63419;42.262;12.210;2022-12-18T11:07:24;98583.91;;;26.56;100.00
74868;BME280;63419;42.262;12.210;2022-12-18T11:10:20;98582.19;;;25.93;100.00
74868;BME280;63419;42.262;12.210;2022-12-18T11:12:49;98578.19;;;28.41;100.00
74868;BME280;63419;42.262;12.210;2022-12-18T11:15:32;98582.38;;;26.93;100.00
74868;BME280;63419;42.262;12.210;2022-12-18T11:18:05;98571.19;;;28.70;100.00
74868;BME280;63419;42.262;12.210;2022-12-18T11:20:53;98575.31;;;27.77;100.00
74868;BME280;63419;42.262;12.210;2022-12-18T11:23:27;98575.72;;;26.43;100.00
74868;BME280;63419;42.262;12.210;2022-12-18T11:26:05;98566.53;;;26.62;100.00
74868;BME280;63419;42.262;12.210;2022-12-18T11:29:08;98562.16;;;27.98;90.29
74868;BME280;63419;42.262;12.210;2022-12-18T11:31:39;98555.09;;;29.21;90.76
74868;BME280;63419;42.262;12.210;2022-12-18T11:34:19;98552.19;;;28.95;98.13
74868;BME280;63419;42.262;12.210;2022-12-18T11:36:59;98548.53;;;29.17;100.00
74868;BME280;63419;42.262;12.210;2022-12-18T11:39:49;59665.06;;;-143.63;100.00
74868;BME280;63419;42.262;12.210;2022-12-18T11:43:11;59665.06;;;-143.63;100.00
74868;BME280;63419;42.262;12.210;2022-12-18T11:46:05;59665.06;;;-143.63;100.00
74868;BME280;63419;42.262;12.210;2022-12-18T11:54:43;59665.06;;;-143.63;100.00
74868;BME280;63419;42.262;12.210;2022-12-18T11:57:29;59665.06;;;-143.63;100.00
74868;BME280;63419;42.262;12.210;2022-12-18T12:00:21;59665.06;;;-143.63;100.00
74868;BME280;63419;42.262;12.210;2022-12-18T12:03:19;59665.06;;;-143.63;100.00
74868;BME280;63419;42.262;12.210;2022-12-18T12:06:46;59665.06;;;-143.63;100.00
74868;BME280;63419;42.262;12.210;2022-12-18T12:09:45;59665.06;;;-143.63;100.00
74868;BME280;63419;42.262;12.210;2022-12-18T12:22:58;59665.06;;;-143.63;100.00
74868;BME280;63419;42.262;12.210;2022-12-18T12:25:57;59665.06;;;-143.63;100.00
74868;BME280;63419;42.262;12.210;2022-12-18T12:31:54;59665.06;;;-143.63;100.00
74868;BME280;63419;42.262;12.210;2022-12-18T12:40:20;59665.06;;;-143.63;100.00
74868;BME280;63419;42.262;12.210;2022-12-18T12:43:46;59665.06;;;-143.63;100.00
74868;BME280;63419;42.262;12.210;2022-12-18T12:46:37;59665.06;;;-143.63;100.00
74868;BME280;63419;42.262;12.210;2022-12-18T12:49:18;59665.06;;;-143.63;100.00
74868;BME280;63419;42.262;12.210;2022-12-18T12:52:10;59665.06;;;-143.63;100.00
74868;BME280;63419;42.262;12.210;2022-12-18T12:54:43;59665.06;;;-143.63;100.00
74868;BME280;63419;42.262;12.210;2022-12-18T12:57:41;59665.06;;;-143.63;100.00
74868;BME280;63419;42.262;12.210;2022-12-18T13:00:27;59665.06;;;-143.63;100.00
74868;BME280;63419;42.262;12.210;2022-12-18T13:03:54;59665.06;;;-143.63;100.00
74868;BME280;63419;42.262;12.210;2022-12-18T13:09:01;59665.06;;;-143.63;100.00
74868;BME280;63419;42.262;12.210;2022-12-18T13:11:47;59665.06;;;-143.63;100.00
74868;BME280;63419;42.262;12.210;2022-12-18T13:15:11;59665.06;;;-143.63;100.00
74868;BME280;63419;42.262;12.210;2022-12-18T13:17:43;59665.06;;;-143.63;100.00
74868;BME280;63419;42.262;12.210;2022-12-18T13:20:15;59665.06;;;-143.63;100.00
74868;BME280;63419;42.262;12.210;2022-12-18T13:22:59;59665.06;;;-143.63;100.00
74868;BME280;63419;42.262;12.210;2022-12-18T13:25:39;59665.06;;;-143.63;100.00
74868;BME280;63419;42.262;12.210;2022-12-18T13:28:14;59665.06;;;-143.63;100.00
74868;BME280;63419;42.262;12.210;2022-12-18T13:30:56;59665.06;;;-143.63;100.00
74868;BME280;63419;42.262;12.210;2022-12-18T13:33:39;59665.06;;;-143.63;100.00
74868;BME280;63419;42.262;12.210;2022-12-18T13:36:36;59665.06;;;-143.63;100.00
74868;BME280;63419;42.262;12.210;2022-12-18T13:39:31;59665.06;;;-143.63;100.00
74868;BME280;63419;42.262;12.210;2022-12-18T13:44:42;59665.06;;;-143.63;100.00
74868;BME280;63419;42.262;12.210;2022-12-18T13:47:36;59665.06;;;-143.63;100.00
74868;BME280;63419;42.262;12.210;2022-12-18T13:50:27;59665.06;;;-143.63;100.00
74868;BME280;63419;42.262;12.210;2022-12-18T13:53:04;59665.06;;;-143.63;100.00
74868;BME280;63419;42.262;12.210;2022-12-18T13:55:34;59665.06;;;-143.63;100.00
74868;BME280;63419;42.262;12.210;2022-12-18T13:58:11;59665.06;;;-143.63;100.00
74868;BME280;63419;42.262;12.210;2022-12-18T14:00:49;59665.06;;;-143.63;100.00
74868;BME280;63419;42.262;12.210;2022-12-18T14:03:28;59665.06;;;-143.63;100.00
74868;BME280;63419;42.262;12.210;2022-12-18T14:06:08;59665.06;;;-143.63;100.00
74868;BME280;63419;42.262;12.210;2022-12-18T14:08:43;59665.06;;;-143.63;100.00
74868;BME280;63419;42.262;12.210;2022-12-18T14:11:22;59665.06;;;-143.63;100.00
74868;BME280;63419;42.262;12.210;2022-12-18T14:13:53;59665.06;;;-143.63;100.00
74868;BME280;63419;42.262;12.210;2022-12-18T14:16:33;59665.06;;;-143.63;100.00
74868;BME280;63419;42.262;12.210;2022-12-18T14:19:15;59665.06;;;-143.63;100.00
74868;BME280;63419;42.262;12.210;2022-12-18T14:21:51;59665.06;;;-143.63;100.00
74868;BME280;63419;42.262;12.210;2022-12-18T14:24:33;59665.06;;;-143.63;100.00
74868;BME280;63419;42.262;12.210;2022-12-18T14:27:23;59665.06;;;-143.63;100.00
74868;BME280;63419;42.262;12.210;2022-12-18T14:29:52;59665.06;;;-143.63;100.00
74868;BME280;63419;42.262;12.210;2022-12-18T14:32:21;59665.06;;;-143.63;100.00
74868;BME280;63419;42.262;12.210;2022-12-18T14:34:54;59665.06;;;-143.63;100.00
74868;BME280;63419;42.262;12.210;2022-12-18T14:37:26;59665.06;;;-143.63;100.00
74868;BME280;63419;42.262;12.210;2022-12-18T14:40:23;59665.06;;;-143.63;100.00
74868;BME280;63419;42.262;12.210;2022-12-18T14:42:53;59665.06;;;-143.63;100.00
74868;BME280;63419;42.262;12.210;2022-12-18T14:45:44;59665.06;;;-143.63;100.00
74868;BME280;63419;42.262;12.210;2022-12-18T14:48:42;59665.06;;;-143.63;100.00
74868;BME280;63419;42.262;12.210;2022-12-18T14:51:20;59665.06;;;-143.63;100.00
74868;BME280;63419;42.262;12.210;2022-12-18T14:54:04;59665.06;;;-143.63;100.00
74868;BME280;63419;42.262;12.210;2022-12-18T14:56:46;59665.06;;;-143.63;100.00